Terminal Aerodrome Forecast
Issued by NWS Dallas/Fort Worth, TX

Home | Current Version | Previous Version | Text Only | Print | Product List | Glossary On
Versions: 1 2 3 4 5 6 7 8 9 10 11 12 13 14 15 16 17 18 19 20 21 22 23 24 25 26 27 28 29 30
372
FTUS44 KFWD 241738
TAFDFW
TAF
KDFW 241738Z 2418/2524 17015KT P6SM BKN025
     FM241900 16014KT P6SM BKN035
     FM250000 15013KT P6SM VCSH BKN040
     FM250200 16011KT P6SM FEW020 BKN035
     FM250800 18013KT P6SM OVC010
     FM251700 17013KT P6SM BKN025=

USA.gov is the U.S. government's official web portal to all federal, state and local government web resources and services.